sensor_id;sensor_type;location;lat;lon;timestamp;temperature;humidity
21807;DHT22;11065;50.786;7.840;2022-08-21T00:01:43;18.70;43.60
21807;DHT22;11065;50.786;7.840;2022-08-21T00:04:10;18.60;43.60
21807;DHT22;11065;50.786;7.840;2022-08-21T00:06:46;18.60;43.70
21807;DHT22;11065;50.786;7.840;2022-08-21T00:09:13;18.60;43.70
21807;DHT22;11065;50.786;7.840;2022-08-21T00:11:40;18.50;43.80
21807;DHT22;11065;50.786;7.840;2022-08-21T00:14:09;18.50;43.80
21807;DHT22;11065;50.786;7.840;2022-08-21T00:16:36;18.50;44.00
21807;DHT22;11065;50.786;7.840;2022-08-21T00:19:04;18.40;44.00
21807;DHT22;11065;50.786;7.840;2022-08-21T00:21:31;18.40;44.00
21807;DHT22;11065;50.786;7.840;2022-08-21T00:23:58;18.30;44.10
21807;DHT22;11065;50.786;7.840;2022-08-21T00:26:24;18.30;44.10
21807;DHT22;11065;50.786;7.840;2022-08-21T00:28:52;18.30;44.20
21807;DHT22;11065;50.786;7.840;2022-08-21T00:31:21;18.30;44.50
21807;DHT22;11065;50.786;7.840;2022-08-21T00:33:49;18.20;44.30
21807;DHT22;11065;50.786;7.840;2022-08-21T00:36:16;18.20;44.30
21807;DHT22;11065;50.786;7.840;2022-08-21T00:38:43;18.10;44.30
21807;DHT22;11065;50.786;7.840;2022-08-21T00:41:11;18.10;44.40
21807;DHT22;11065;50.786;7.840;2022-08-21T00:43:57;18.00;44.50
21807;DHT22;11065;50.786;7.840;2022-08-21T00:46:25;18.00;44.40
21807;DHT22;11065;50.786;7.840;2022-08-21T00:48:54;18.00;44.50
21807;DHT22;11065;50.786;7.840;2022-08-21T00:54:13;17.90;44.80
21807;DHT22;11065;50.786;7.840;2022-08-21T00:56:51;17.90;44.70
21807;DHT22;11065;50.786;7.840;2022-08-21T00:59:21;17.80;44.90
21807;DHT22;11065;50.786;7.840;2022-08-21T01:01:50;17.80;44.80
21807;DHT22;11065;50.786;7.840;2022-08-21T01:04:17;17.80;44.80
21807;DHT22;11065;50.786;7.840;2022-08-21T01:06:44;17.70;44.90
21807;DHT22;11065;50.786;7.840;2022-08-21T01:09:12;17.70;45.00
21807;DHT22;11065;50.786;7.840;2022-08-21T01:11:40;17.70;45.10
21807;DHT22;11065;50.786;7.840;2022-08-21T01:14:10;17.60;45.10
21807;DHT22;11065;50.786;7.840;2022-08-21T01:16:41;17.60;45.20
21807;DHT22;11065;50.786;7.840;2022-08-21T01:19:09;17.60;45.30
21807;DHT22;11065;50.786;7.840;2022-08-21T01:21:37;17.50;45.20
21807;DHT22;11065;50.786;7.840;2022-08-21T01:24:04;17.50;45.30
21807;DHT22;11065;50.786;7.840;2022-08-21T01:26:34;17.50;45.40
21807;DHT22;11065;50.786;7.840;2022-08-21T01:31:34;17.40;45.60
21807;DHT22;11065;50.786;7.840;2022-08-21T01:34:01;17.30;45.40
21807;DHT22;11065;50.786;7.840;2022-08-21T01:36:28;17.30;45.50
21807;DHT22;11065;50.786;7.840;2022-08-21T01:38:55;17.20;45.50
21807;DHT22;11065;50.786;7.840;2022-08-21T01:41:22;17.20;45.60
21807;DHT22;11065;50.786;7.840;2022-08-21T01:43:49;17.20;45.70
21807;DHT22;11065;50.786;7.840;2022-08-21T01:46:17;17.20;45.70
21807;DHT22;11065;50.786;7.840;2022-08-21T01:48:44;17.20;45.80
21807;DHT22;11065;50.786;7.840;2022-08-21T01:51:11;17.10;45.80
21807;DHT22;11065;50.786;7.840;2022-08-21T01:53:38;17.10;45.80
21807;DHT22;11065;50.786;7.840;2022-08-21T01:56:07;17.10;45.90
21807;DHT22;11065;50.786;7.840;2022-08-21T01:58:40;17.10;46.00
21807;DHT22;11065;50.786;7.840;2022-08-21T02:01:08;17.00;46.00
21807;DHT22;11065;50.786;7.840;2022-08-21T02:03:36;17.00;46.10
21807;DHT22;11065;50.786;7.840;2022-08-21T02:06:05;17.00;46.10
21807;DHT22;11065;50.786;7.840;2022-08-21T02:08:33;16.90;46.20
21807;DHT22;11065;50.786;7.840;2022-08-21T02:11:01;16.90;46.20
21807;DHT22;11065;50.786;7.840;2022-08-21T02:13:28;16.90;46.30
21807;DHT22;11065;50.786;7.840;2022-08-21T02:15:55;16.80;46.20
21807;DHT22;11065;50.786;7.840;2022-08-21T02:18:22;16.80;46.30
21807;DHT22;11065;50.786;7.840;2022-08-21T02:20:49;16.80;46.40
21807;DHT22;11065;50.786;7.840;2022-08-21T02:23:23;16.80;46.50
21807;DHT22;11065;50.786;7.840;2022-08-21T02:26:05;16.70;46.50
21807;DHT22;11065;50.786;7.840;2022-08-21T02:28:34;16.70;46.90
21807;DHT22;11065;50.786;7.840;2022-08-21T02:31:02;16.70;46.60
21807;DHT22;11065;50.786;7.840;2022-08-21T02:33:29;16.70;46.60
21807;DHT22;11065;50.786;7.840;2022-08-21T02:35:56;16.60;46.60
21807;DHT22;11065;50.786;7.840;2022-08-21T02:38:27;16.60;46.70
21807;DHT22;11065;50.786;7.840;2022-08-21T02:40:55;16.60;46.80
21807;DHT22;11065;50.786;7.840;2022-08-21T02:43:24;16.60;47.30
21807;DHT22;11065;50.786;7.840;2022-08-21T02:45:54;16.60;46.90
21807;DHT22;11065;50.786;7.840;2022-08-21T02:48:25;16.60;46.90
21807;DHT22;11065;50.786;7.840;2022-08-21T02:50:56;16.50;46.90
21807;DHT22;11065;50.786;7.840;2022-08-21T02:53:24;16.50;47.00
21807;DHT22;11065;50.786;7.840;2022-08-21T02:55:52;16.50;46.90
21807;DHT22;11065;50.786;7.840;2022-08-21T02:58:32;16.40;46.90
21807;DHT22;11065;50.786;7.840;2022-08-21T03:01:00;16.40;47.20
21807;DHT22;11065;50.786;7.840;2022-08-21T03:03:28;16.40;46.90
21807;DHT22;11065;50.786;7.840;2022-08-21T03:05:55;16.40;47.00
21807;DHT22;11065;50.786;7.840;2022-08-21T03:08:23;16.30;47.00
21807;DHT22;11065;50.786;7.840;2022-08-21T03:10:54;16.30;47.10
21807;DHT22;11065;50.786;7.840;2022-08-21T03:13:21;16.30;47.20
21807;DHT22;11065;50.786;7.840;2022-08-21T03:15:49;16.30;47.20
21807;DHT22;11065;50.786;7.840;2022-08-21T03:18:17;16.20;47.20
21807;DHT22;11065;50.786;7.840;2022-08-21T03:20:44;16.20;47.20
21807;DHT22;11065;50.786;7.840;2022-08-21T03:23:12;16.20;47.30
21807;DHT22;11065;50.786;7.840;2022-08-21T03:25:43;16.20;47.30
21807;DHT22;11065;50.786;7.840;2022-08-21T03:28:14;16.10;47.30
21807;DHT22;11065;50.786;7.840;2022-08-21T03:30:43;16.10;47.40
21807;DHT22;11065;50.786;7.840;2022-08-21T03:33:11;16.10;47.30
21807;DHT22;11065;50.786;7.840;2022-08-21T03:35:44;16.00;47.30
21807;DHT22;11065;50.786;7.840;2022-08-21T03:38:12;16.00;47.40
21807;DHT22;11065;50.786;7.840;2022-08-21T03:40:41;16.00;47.50
21807;DHT22;11065;50.786;7.840;2022-08-21T03:43:08;16.00;47.60
21807;DHT22;11065;50.786;7.840;2022-08-21T03:45:36;16.00;47.60
21807;DHT22;11065;50.786;7.840;2022-08-21T03:48:05;15.90;47.50
21807;DHT22;11065;50.786;7.840;2022-08-21T03:50:35;15.90;47.60
21807;DHT22;11065;50.786;7.840;2022-08-21T03:53:08;15.90;47.70
21807;DHT22;11065;50.786;7.840;2022-08-21T03:55:45;15.90;48.10
21807;DHT22;11065;50.786;7.840;2022-08-21T03:58:15;15.80;47.70
21807;DHT22;11065;50.786;7.840;2022-08-21T04:00:45;15.80;47.70
21807;DHT22;11065;50.786;7.840;2022-08-21T04:03:12;15.80;47.80
21807;DHT22;11065;50.786;7.840;2022-08-21T04:05:39;15.80;47.80
21807;DHT22;11065;50.786;7.840;2022-08-21T04:08:07;15.80;47.80
21807;DHT22;11065;50.786;7.840;2022-08-21T04:10:36;15.70;47.80
21807;DHT22;11065;50.786;7.840;2022-08-21T04:13:04;15.70;47.90
21807;DHT22;11065;50.786;7.840;2022-08-21T04:15:32;15.70;47.90
21807;DHT22;11065;50.786;7.840;2022-08-21T04:17:59;15.70;47.90
21807;DHT22;11065;50.786;7.840;2022-08-21T04:20:27;15.60;47.80
21807;DHT22;11065;50.786;7.840;2022-08-21T04:22:55;15.60;47.90
21807;DHT22;11065;50.786;7.840;2022-08-21T04:25:23;15.60;47.90
21807;DHT22;11065;50.786;7.840;2022-08-21T04:27:52;15.60;48.00
21807;DHT22;11065;50.786;7.840;2022-08-21T04:30:19;15.60;48.00
21807;DHT22;11065;50.786;7.840;2022-08-21T04:32:48;15.50;48.00
21807;DHT22;11065;50.786;7.840;2022-08-21T04:35:21;15.50;48.10
21807;DHT22;11065;50.786;7.840;2022-08-21T04:37:48;15.50;48.10
21807;DHT22;11065;50.786;7.840;2022-08-21T04:40:17;15.50;48.10
21807;DHT22;11065;50.786;7.840;2022-08-21T04:42:48;15.50;48.20
21807;DHT22;11065;50.786;7.840;2022-08-21T04:45:27;15.50;48.30
21807;DHT22;11065;50.786;7.840;2022-08-21T04:47:56;15.50;48.30
21807;DHT22;11065;50.786;7.840;2022-08-21T04:50:27;15.40;48.30
21807;DHT22;11065;50.786;7.840;2022-08-21T04:53:11;15.40;48.40
21807;DHT22;11065;50.786;7.840;2022-08-21T04:55:40;15.40;48.40
21807;DHT22;11065;50.786;7.840;2022-08-21T04:58:11;15.40;48.50
21807;DHT22;11065;50.786;7.840;2022-08-21T05:00:39;15.40;48.60
21807;DHT22;11065;50.786;7.840;2022-08-21T05:03:08;15.30;48.50
21807;DHT22;11065;50.786;7.840;2022-08-21T05:05:36;15.40;48.70
21807;DHT22;11065;50.786;7.840;2022-08-21T05:08:04;15.40;48.70
21807;DHT22;11065;50.786;7.840;2022-08-21T05:10:32;15.40;48.70
21807;DHT22;11065;50.786;7.840;2022-08-21T05:13:00;15.40;48.70
21807;DHT22;11065;50.786;7.840;2022-08-21T05:15:27;15.40;48.80
21807;DHT22;11065;50.786;7.840;2022-08-21T05:17:54;15.40;48.80
21807;DHT22;11065;50.786;7.840;2022-08-21T05:20:27;15.40;48.90
21807;DHT22;11065;50.786;7.840;2022-08-21T05:22:54;15.40;48.90
21807;DHT22;11065;50.786;7.840;2022-08-21T05:25:21;15.40;49.00
21807;DHT22;11065;50.786;7.840;2022-08-21T05:27:49;15.40;49.20
21807;DHT22;11065;50.786;7.840;2022-08-21T05:30:19;15.40;49.30
21807;DHT22;11065;50.786;7.840;2022-08-21T05:32:46;15.40;49.40
21807;DHT22;11065;50.786;7.840;2022-08-21T05:35:14;15.40;49.50
21807;DHT22;11065;50.786;7.840;2022-08-21T05:37:41;15.40;49.60
21807;DHT22;11065;50.786;7.840;2022-08-21T05:40:08;15.40;49.60
21807;DHT22;11065;50.786;7.840;2022-08-21T05:42:49;15.40;49.70
21807;DHT22;11065;50.786;7.840;2022-08-21T05:45:29;15.40;49.80
21807;DHT22;11065;50.786;7.840;2022-08-21T05:48:18;15.40;50.10
21807;DHT22;11065;50.786;7.840;2022-08-21T05:51:09;15.50;50.30
21807;DHT22;11065;50.786;7.840;2022-08-21T05:53:38;15.50;50.20
21807;DHT22;11065;50.786;7.840;2022-08-21T05:56:05;15.50;50.10
21807;DHT22;11065;50.786;7.840;2022-08-21T05:58:33;15.50;50.20
21807;DHT22;11065;50.786;7.840;2022-08-21T06:01:01;15.50;50.30
21807;DHT22;11065;50.786;7.840;2022-08-21T06:03:32;15.50;50.30
21807;DHT22;11065;50.786;7.840;2022-08-21T06:05:59;15.50;50.40
21807;DHT22;11065;50.786;7.840;2022-08-21T06:08:27;15.60;50.40
21807;DHT22;11065;50.786;7.840;2022-08-21T06:10:56;15.50;50.50
21807;DHT22;11065;50.786;7.840;2022-08-21T06:13:23;15.60;50.70
21807;DHT22;11065;50.786;7.840;2022-08-21T06:16:02;15.60;50.60
21807;DHT22;11065;50.786;7.840;2022-08-21T06:18:29;15.50;51.00
21807;DHT22;11065;50.786;7.840;2022-08-21T06:20:56;15.50;50.70
21807;DHT22;11065;50.786;7.840;2022-08-21T06:23:23;15.50;50.90
21807;DHT22;11065;50.786;7.840;2022-08-21T06:25:59;15.60;50.90
21807;DHT22;11065;50.786;7.840;2022-08-21T06:28:26;15.60;50.90
21807;DHT22;11065;50.786;7.840;2022-08-21T06:30:52;15.60;51.00
21807;DHT22;11065;50.786;7.840;2022-08-21T06:33:19;15.70;51.30
21807;DHT22;11065;50.786;7.840;2022-08-21T06:35:46;15.70;51.30
21807;DHT22;11065;50.786;7.840;2022-08-21T06:38:14;15.70;51.50
21807;DHT22;11065;50.786;7.840;2022-08-21T06:40:40;15.80;51.50
21807;DHT22;11065;50.786;7.840;2022-08-21T06:43:16;15.80;51.70
21807;DHT22;11065;50.786;7.840;2022-08-21T06:45:44;15.80;51.80
21807;DHT22;11065;50.786;7.840;2022-08-21T06:48:10;15.90;51.70
21807;DHT22;11065;50.786;7.840;2022-08-21T06:50:45;15.90;51.70
21807;DHT22;11065;50.786;7.840;2022-08-21T06:53:18;15.90;51.70
21807;DHT22;11065;50.786;7.840;2022-08-21T06:55:46;16.00;51.90
21807;DHT22;11065;50.786;7.840;2022-08-21T06:58:13;16.00;51.80
21807;DHT22;11065;50.786;7.840;2022-08-21T07:00:44;16.10;51.90
21807;DHT22;11065;50.786;7.840;2022-08-21T07:03:20;16.10;52.00
21807;DHT22;11065;50.786;7.840;2022-08-21T07:05:47;16.20;52.40
21807;DHT22;11065;50.786;7.840;2022-08-21T07:08:14;16.30;52.20
21807;DHT22;11065;50.786;7.840;2022-08-21T07:10:41;16.40;52.30
21807;DHT22;11065;50.786;7.840;2022-08-21T07:13:08;16.40;52.30
21807;DHT22;11065;50.786;7.840;2022-08-21T07:15:35;16.40;52.30
21807;DHT22;11065;50.786;7.840;2022-08-21T07:18:02;16.50;52.40
21807;DHT22;11065;50.786;7.840;2022-08-21T07:20:30;16.60;52.50
21807;DHT22;11065;50.786;7.840;2022-08-21T07:23:00;16.60;52.50
21807;DHT22;11065;50.786;7.840;2022-08-21T07:25:28;16.70;52.50
21807;DHT22;11065;50.786;7.840;2022-08-21T07:27:55;16.80;52.40
21807;DHT22;11065;50.786;7.840;2022-08-21T07:30:22;16.90;52.40
21807;DHT22;11065;50.786;7.840;2022-08-21T07:32:50;17.00;52.40
21807;DHT22;11065;50.786;7.840;2022-08-21T07:35:18;17.10;52.50
21807;DHT22;11065;50.786;7.840;2022-08-21T07:37:46;17.20;52.80
21807;DHT22;11065;50.786;7.840;2022-08-21T07:40:14;17.30;52.60
21807;DHT22;11065;50.786;7.840;2022-08-21T07:42:42;17.40;53.10
21807;DHT22;11065;50.786;7.840;2022-08-21T07:45:10;17.50;52.50
21807;DHT22;11065;50.786;7.840;2022-08-21T07:47:38;17.60;52.70
21807;DHT22;11065;50.786;7.840;2022-08-21T07:50:10;17.70;52.70
21807;DHT22;11065;50.786;7.840;2022-08-21T07:52:38;17.80;52.80
21807;DHT22;11065;50.786;7.840;2022-08-21T07:55:07;17.90;52.60
21807;DHT22;11065;50.786;7.840;2022-08-21T07:57:35;18.00;52.50
21807;DHT22;11065;50.786;7.840;2022-08-21T08:00:04;18.10;52.50
21807;DHT22;11065;50.786;7.840;2022-08-21T08:02:38;18.20;52.50
21807;DHT22;11065;50.786;7.840;2022-08-21T08:05:09;18.30;52.40
21807;DHT22;11065;50.786;7.840;2022-08-21T08:07:37;18.40;52.70
21807;DHT22;11065;50.786;7.840;2022-08-21T08:10:05;18.50;52.60
21807;DHT22;11065;50.786;7.840;2022-08-21T08:12:35;18.70;52.50
21807;DHT22;11065;50.786;7.840;2022-08-21T08:15:04;18.80;52.50
21807;DHT22;11065;50.786;7.840;2022-08-21T08:17:32;18.90;52.50
21807;DHT22;11065;50.786;7.840;2022-08-21T08:20:00;19.10;52.40
21807;DHT22;11065;50.786;7.840;2022-08-21T08:22:27;19.20;52.40
21807;DHT22;11065;50.786;7.840;2022-08-21T08:24:54;19.30;52.60
21807;DHT22;11065;50.786;7.840;2022-08-21T08:27:22;19.60;53.30
21807;DHT22;11065;50.786;7.840;2022-08-21T08:29:49;20.00;54.40
21807;DHT22;11065;50.786;7.840;2022-08-21T08:32:16;20.60;55.50
21807;DHT22;11065;50.786;7.840;2022-08-21T08:34:43;21.40;56.50
21807;DHT22;11065;50.786;7.840;2022-08-21T08:37:10;22.30;57.00
21807;DHT22;11065;50.786;7.840;2022-08-21T08:39:37;23.40;57.20
21807;DHT22;11065;50.786;7.840;2022-08-21T08:42:12;24.40;56.30
21807;DHT22;11065;50.786;7.840;2022-08-21T08:45:06;25.50;55.00
21807;DHT22;11065;50.786;7.840;2022-08-21T08:47:43;26.60;54.40
21807;DHT22;11065;50.786;7.840;2022-08-21T08:52:49;28.50;50.60
21807;DHT22;11065;50.786;7.840;2022-08-21T08:55:28;29.20;48.00
21807;DHT22;11065;50.786;7.840;2022-08-21T08:57:59;29.80;46.80
21807;DHT22;11065;50.786;7.840;2022-08-21T09:00:26;30.40;47.90
21807;DHT22;11065;50.786;7.840;2022-08-21T09:02:57;31.00;47.00
21807;DHT22;11065;50.786;7.840;2022-08-21T09:06:04;31.60;45.70
21807;DHT22;11065;50.786;7.840;2022-08-21T09:08:41;32.20;45.20
21807;DHT22;11065;50.786;7.840;2022-08-21T09:14:05;33.30;44.10
21807;DHT22;11065;50.786;7.840;2022-08-21T09:19:29;34.30;41.50
21807;DHT22;11065;50.786;7.840;2022-08-21T09:22:16;34.70;38.60
21807;DHT22;11065;50.786;7.840;2022-08-21T09:25:02;35.10;39.10
21807;DHT22;11065;50.786;7.840;2022-08-21T09:27:31;35.50;39.00
21807;DHT22;11065;50.786;7.840;2022-08-21T09:29:58;35.80;38.90
21807;DHT22;11065;50.786;7.840;2022-08-21T09:32:30;36.10;38.40
21807;DHT22;11065;50.786;7.840;2022-08-21T09:35:11;36.40;36.70
21807;DHT22;11065;50.786;7.840;2022-08-21T09:37:56;36.60;36.20
21807;DHT22;11065;50.786;7.840;2022-08-21T09:43:04;37.20;35.50
21807;DHT22;11065;50.786;7.840;2022-08-21T09:45:33;37.40;35.50
21807;DHT22;11065;50.786;7.840;2022-08-21T09:48:21;37.60;35.50
21807;DHT22;11065;50.786;7.840;2022-08-21T09:50:53;37.90;34.50
21807;DHT22;11065;50.786;7.840;2022-08-21T09:53:24;38.10;34.90
21807;DHT22;11065;50.786;7.840;2022-08-21T09:56:14;38.40;33.00
21807;DHT22;11065;50.786;7.840;2022-08-21T09:59:01;38.60;33.50
21807;DHT22;11065;50.786;7.840;2022-08-21T10:01:44;38.90;33.30
21807;DHT22;11065;50.786;7.840;2022-08-21T10:04:11;39.10;33.10
21807;DHT22;11065;50.786;7.840;2022-08-21T10:06:38;39.30;33.30
21807;DHT22;11065;50.786;7.840;2022-08-21T10:09:14;39.60;32.70
21807;DHT22;11065;50.786;7.840;2022-08-21T10:12:00;39.80;31.40
21807;DHT22;11065;50.786;7.840;2022-08-21T10:14:54;40.00;31.60
21807;DHT22;11065;50.786;7.840;2022-08-21T10:20:09;40.60;30.70
21807;DHT22;11065;50.786;7.840;2022-08-21T10:23:34;40.80;30.70
21807;DHT22;11065;50.786;7.840;2022-08-21T10:25:47;41.00;30.00
21807;DHT22;11065;50.786;7.840;2022-08-21T10:33:53;41.50;28.60
21807;DHT22;11065;50.786;7.840;2022-08-21T10:36:46;41.60;28.30
21807;DHT22;11065;50.786;7.840;2022-08-21T10:39:35;41.60;28.00
21807;DHT22;11065;50.786;7.840;2022-08-21T10:45:05;41.50;27.50
21807;DHT22;11065;50.786;7.840;2022-08-21T10:47:41;41.50;27.70
21807;DHT22;11065;50.786;7.840;2022-08-21T10:50:13;41.50;28.30
21807;DHT22;11065;50.786;7.840;2022-08-21T10:53:15;41.60;28.40
21807;DHT22;11065;50.786;7.840;2022-08-21T10:58:37;41.90;28.00
21807;DHT22;11065;50.786;7.840;2022-08-21T11:01:48;42.10;27.60
21807;DHT22;11065;50.786;7.840;2022-08-21T11:04:25;42.20;27.60
21807;DHT22;11065;50.786;7.840;2022-08-21T11:07:32;42.50;27.60
21807;DHT22;11065;50.786;7.840;2022-08-21T11:10:10;42.70;27.70
21807;DHT22;11065;50.786;7.840;2022-08-21T11:15:34;42.80;26.90
21807;DHT22;11065;50.786;7.840;2022-08-21T11:21:02;42.90;26.10
21807;DHT22;11065;50.786;7.840;2022-08-21T11:23:53;43.00;26.40
21807;DHT22;11065;50.786;7.840;2022-08-21T11:26:42;43.10;26.60
21807;DHT22;11065;50.786;7.840;2022-08-21T11:29:16;43.10;25.00
21807;DHT22;11065;50.786;7.840;2022-08-21T11:45:52;43.00;25.50
21807;DHT22;11065;50.786;7.840;2022-08-21T11:48:37;43.10;25.50
21807;DHT22;11065;50.786;7.840;2022-08-21T11:51:19;43.10;25.80
21807;DHT22;11065;50.786;7.840;2022-08-21T11:56:48;43.40;25.30
21807;DHT22;11065;50.786;7.840;2022-08-21T11:59:36;43.40;24.80
21807;DHT22;11065;50.786;7.840;2022-08-21T12:02:15;43.40;24.40
21807;DHT22;11065;50.786;7.840;2022-08-21T12:04:50;43.30;24.40
21807;DHT22;11065;50.786;7.840;2022-08-21T12:07:33;43.20;24.20
21807;DHT22;11065;50.786;7.840;2022-08-21T12:10:06;43.00;24.20
21807;DHT22;11065;50.786;7.840;2022-08-21T12:12:37;42.90;24.20
21807;DHT22;11065;50.786;7.840;2022-08-21T12:17:59;42.60;23.90
21807;DHT22;11065;50.786;7.840;2022-08-21T12:20:40;42.30;23.90
21807;DHT22;11065;50.786;7.840;2022-08-21T12:23:29;42.10;23.50
21807;DHT22;11065;50.786;7.840;2022-08-21T12:26:18;42.00;24.00
21807;DHT22;11065;50.786;7.840;2022-08-21T12:28:46;42.00;24.20
21807;DHT22;11065;50.786;7.840;2022-08-21T12:31:26;41.90;23.90
21807;DHT22;11065;50.786;7.840;2022-08-21T12:34:00;41.80;23.50
21807;DHT22;11065;50.786;7.840;2022-08-21T12:36:41;41.80;23.60
21807;DHT22;11065;50.786;7.840;2022-08-21T12:39:15;41.70;23.60
21807;DHT22;11065;50.786;7.840;2022-08-21T12:41:56;41.70;23.60
21807;DHT22;11065;50.786;7.840;2022-08-21T12:44:39;41.80;23.80
21807;DHT22;11065;50.786;7.840;2022-08-21T12:47:36;41.80;23.60
21807;DHT22;11065;50.786;7.840;2022-08-21T12:50:24;41.80;23.70
21807;DHT22;11065;50.786;7.840;2022-08-21T12:52:59;41.90;23.50
21807;DHT22;11065;50.786;7.840;2022-08-21T12:55:31;41.90;23.80
21807;DHT22;11065;50.786;7.840;2022-08-21T12:57:59;42.00;23.90
21807;DHT22;11065;50.786;7.840;2022-08-21T13:00:28;42.00;23.90
21807;DHT22;11065;50.786;7.840;2022-08-21T13:02:56;42.10;23.90
21807;DHT22;11065;50.786;7.840;2022-08-21T13:05:31;42.20;23.90
21807;DHT22;11065;50.786;7.840;2022-08-21T13:08:03;42.30;23.70
21807;DHT22;11065;50.786;7.840;2022-08-21T13:10:32;42.30;23.50
21807;DHT22;11065;50.786;7.840;2022-08-21T13:13:09;42.40;23.50
21807;DHT22;11065;50.786;7.840;2022-08-21T13:15:40;42.30;23.10
21807;DHT22;11065;50.786;7.840;2022-08-21T13:18:25;42.20;23.30
21807;DHT22;11065;50.786;7.840;2022-08-21T13:21:03;42.10;23.10
21807;DHT22;11065;50.786;7.840;2022-08-21T13:23:31;42.00;23.20
21807;DHT22;11065;50.786;7.840;2022-08-21T13:25:58;41.80;23.30
21807;DHT22;11065;50.786;7.840;2022-08-21T13:28:33;41.70;23.30
21807;DHT22;11065;50.786;7.840;2022-08-21T13:31:00;41.70;23.40
21807;DHT22;11065;50.786;7.840;2022-08-21T13:33:30;41.70;23.40
21807;DHT22;11065;50.786;7.840;2022-08-21T13:36:20;41.70;23.10
21807;DHT22;11065;50.786;7.840;2022-08-21T13:38:51;41.60;23.00
21807;DHT22;11065;50.786;7.840;2022-08-21T13:41:24;41.60;23.00
21807;DHT22;11065;50.786;7.840;2022-08-21T13:44:01;41.60;23.10
21807;DHT22;11065;50.786;7.840;2022-08-21T13:46:31;41.50;23.00
21807;DHT22;11065;50.786;7.840;2022-08-21T13:49:03;41.50;23.00
21807;DHT22;11065;50.786;7.840;2022-08-21T13:51:32;41.40;22.90
21807;DHT22;11065;50.786;7.840;2022-08-21T13:54:00;41.40;22.90
21807;DHT22;11065;50.786;7.840;2022-08-21T13:56:45;41.20;22.90
21807;DHT22;11065;50.786;7.840;2022-08-21T13:59:24;41.20;22.90
21807;DHT22;11065;50.786;7.840;2022-08-21T14:01:58;41.10;23.00
21807;DHT22;11065;50.786;7.840;2022-08-21T14:04:59;41.10;23.00
21807;DHT22;11065;50.786;7.840;2022-08-21T14:07:29;41.00;22.90
21807;DHT22;11065;50.786;7.840;2022-08-21T14:10:05;41.00;23.10
21807;DHT22;11065;50.786;7.840;2022-08-21T14:12:43;41.00;23.00
21807;DHT22;11065;50.786;7.840;2022-08-21T14:15:13;40.90;22.90
21807;DHT22;11065;50.786;7.840;2022-08-21T14:17:41;41.00;22.90
21807;DHT22;11065;50.786;7.840;2022-08-21T14:20:12;40.90;22.90
21807;DHT22;11065;50.786;7.840;2022-08-21T14:22:51;40.80;22.90
21807;DHT22;11065;50.786;7.840;2022-08-21T14:31:20;40.20;22.90
21807;DHT22;11065;50.786;7.840;2022-08-21T14:33:47;39.90;23.00
21807;DHT22;11065;50.786;7.840;2022-08-21T14:36:14;39.70;23.00
21807;DHT22;11065;50.786;7.840;2022-08-21T14:38:41;39.60;23.20
21807;DHT22;11065;50.786;7.840;2022-08-21T14:41:15;39.60;23.30
21807;DHT22;11065;50.786;7.840;2022-08-21T14:43:44;39.50;23.30
21807;DHT22;11065;50.786;7.840;2022-08-21T14:46:21;39.50;23.30
21807;DHT22;11065;50.786;7.840;2022-08-21T14:48:49;39.30;23.10
21807;DHT22;11065;50.786;7.840;2022-08-21T14:51:17;39.20;23.10
21807;DHT22;11065;50.786;7.840;2022-08-21T14:53:44;38.90;23.10
21807;DHT22;11065;50.786;7.840;2022-08-21T14:56:12;38.70;23.10
21807;DHT22;11065;50.786;7.840;2022-08-21T14:58:46;38.50;23.10
21807;DHT22;11065;50.786;7.840;2022-08-21T15:01:16;38.40;23.00
21807;DHT22;11065;50.786;7.840;2022-08-21T15:03:46;38.30;23.00
21807;DHT22;11065;50.786;7.840;2022-08-21T15:06:15;38.10;23.10
21807;DHT22;11065;50.786;7.840;2022-08-21T15:08:42;38.10;23.20
21807;DHT22;11065;50.786;7.840;2022-08-21T15:11:14;38.00;23.20
21807;DHT22;11065;50.786;7.840;2022-08-21T15:14:03;38.00;23.10
21807;DHT22;11065;50.786;7.840;2022-08-21T15:16:33;38.00;23.20
21807;DHT22;11065;50.786;7.840;2022-08-21T15:19:00;37.90;23.20
21807;DHT22;11065;50.786;7.840;2022-08-21T15:21:26;37.90;23.10
21807;DHT22;11065;50.786;7.840;2022-08-21T15:23:53;37.80;23.00
21807;DHT22;11065;50.786;7.840;2022-08-21T15:26:22;37.70;23.00
21807;DHT22;11065;50.786;7.840;2022-08-21T15:28:49;37.60;23.00
21807;DHT22;11065;50.786;7.840;2022-08-21T15:31:16;37.30;22.80
21807;DHT22;11065;50.786;7.840;2022-08-21T15:33:43;37.10;22.70
21807;DHT22;11065;50.786;7.840;2022-08-21T15:36:10;36.80;22.70
21807;DHT22;11065;50.786;7.840;2022-08-21T15:38:37;36.50;22.70
21807;DHT22;11065;50.786;7.840;2022-08-21T15:41:04;36.20;22.90
21807;DHT22;11065;50.786;7.840;2022-08-21T15:43:40;36.00;23.00
21807;DHT22;11065;50.786;7.840;2022-08-21T15:46:12;35.70;23.10
21807;DHT22;11065;50.786;7.840;2022-08-21T15:48:39;35.50;23.20
21807;DHT22;11065;50.786;7.840;2022-08-21T15:51:06;35.20;23.30
21807;DHT22;11065;50.786;7.840;2022-08-21T15:53:32;35.00;23.30
21807;DHT22;11065;50.786;7.840;2022-08-21T15:56:03;34.80;23.40
21807;DHT22;11065;50.786;7.840;2022-08-21T15:58:31;34.70;23.50
21807;DHT22;11065;50.786;7.840;2022-08-21T16:00:59;34.50;23.50
21807;DHT22;11065;50.786;7.840;2022-08-21T16:03:27;34.40;23.60
21807;DHT22;11065;50.786;7.840;2022-08-21T16:05:54;34.20;23.60
21807;DHT22;11065;50.786;7.840;2022-08-21T16:08:24;34.10;23.80
21807;DHT22;11065;50.786;7.840;2022-08-21T16:10:52;33.90;23.80
21807;DHT22;11065;50.786;7.840;2022-08-21T16:13:36;33.80;23.90
21807;DHT22;11065;50.786;7.840;2022-08-21T16:16:05;33.80;24.20
21807;DHT22;11065;50.786;7.840;2022-08-21T16:18:32;33.80;24.20
21807;DHT22;11065;50.786;7.840;2022-08-21T16:20:59;33.80;24.20
21807;DHT22;11065;50.786;7.840;2022-08-21T16:23:25;33.80;24.20
21807;DHT22;11065;50.786;7.840;2022-08-21T16:25:52;33.80;24.20
21807;DHT22;11065;50.786;7.840;2022-08-21T16:28:20;33.80;24.20
21807;DHT22;11065;50.786;7.840;2022-08-21T16:30:49;33.80;24.30
21807;DHT22;11065;50.786;7.840;2022-08-21T16:33:27;33.80;24.20
21807;DHT22;11065;50.786;7.840;2022-08-21T16:35:56;33.80;24.20
21807;DHT22;11065;50.786;7.840;2022-08-21T16:38:23;33.80;24.20
21807;DHT22;11065;50.786;7.840;2022-08-21T16:40:50;33.70;24.20
21807;DHT22;11065;50.786;7.840;2022-08-21T16:43:25;33.70;24.30
21807;DHT22;11065;50.786;7.840;2022-08-21T16:45:53;33.60;24.30
21807;DHT22;11065;50.786;7.840;2022-08-21T16:48:20;33.50;24.40
21807;DHT22;11065;50.786;7.840;2022-08-21T16:50:47;33.40;24.40
21807;DHT22;11065;50.786;7.840;2022-08-21T16:53:17;33.20;24.40
21807;DHT22;11065;50.786;7.840;2022-08-21T16:55:44;33.10;24.50
21807;DHT22;11065;50.786;7.840;2022-08-21T16:58:32;32.90;24.50
21807;DHT22;11065;50.786;7.840;2022-08-21T17:01:03;32.80;24.80